sensor_id;sensor_type;location;lat;lon;timestamp;temperature;humidity
16511;DHT22;8368;48.772;8.754;2022-09-30T00:01:05;6.90;99.90
16511;DHT22;8368;48.772;8.754;2022-09-30T00:03:31;6.90;99.90
16511;DHT22;8368;48.772;8.754;2022-09-30T00:05:57;6.90;99.90
16511;DHT22;8368;48.772;8.754;2022-09-30T00:08:23;7.00;99.90
16511;DHT22;8368;48.772;8.754;2022-09-30T00:11:21;7.00;99.90
16511;DHT22;8368;48.772;8.754;2022-09-30T00:13:48;7.00;99.90
16511;DHT22;8368;48.772;8.754;2022-09-30T00:16:15;7.00;99.90
16511;DHT22;8368;48.772;8.754;2022-09-30T00:18:42;6.90;99.90
16511;DHT22;8368;48.772;8.754;2022-09-30T00:21:09;6.90;99.90
16511;DHT22;8368;48.772;8.754;2022-09-30T00:23:36;6.90;99.90
16511;DHT22;8368;48.772;8.754;2022-09-30T00:26:05;6.90;99.90
16511;DHT22;8368;48.772;8.754;2022-09-30T00:28:31;7.00;99.90
16511;DHT22;8368;48.772;8.754;2022-09-30T00:31:02;6.90;99.90
16511;DHT22;8368;48.772;8.754;2022-09-30T00:33:29;6.90;99.90
16511;DHT22;8368;48.772;8.754;2022-09-30T00:35:55;6.90;99.90
16511;DHT22;8368;48.772;8.754;2022-09-30T00:38:21;6.90;99.90
16511;DHT22;8368;48.772;8.754;2022-09-30T00:40:46;6.90;99.90
16511;DHT22;8368;48.772;8.754;2022-09-30T00:43:15;6.90;99.90
16511;DHT22;8368;48.772;8.754;2022-09-30T00:45:53;6.90;99.90
16511;DHT22;8368;48.772;8.754;2022-09-30T00:48:29;6.90;99.90
16511;DHT22;8368;48.772;8.754;2022-09-30T00:50:57;6.90;99.90
16511;DHT22;8368;48.772;8.754;2022-09-30T00:53:30;6.90;99.90
16511;DHT22;8368;48.772;8.754;2022-09-30T00:56:02;6.90;99.90
16511;DHT22;8368;48.772;8.754;2022-09-30T00:59:12;6.90;99.90
16511;DHT22;8368;48.772;8.754;2022-09-30T01:01:30;6.90;99.90
16511;DHT22;8368;48.772;8.754;2022-09-30T01:04:00;6.90;99.90
16511;DHT22;8368;48.772;8.754;2022-09-30T01:06:26;7.00;99.90
16511;DHT22;8368;48.772;8.754;2022-09-30T01:08:52;7.00;99.90
16511;DHT22;8368;48.772;8.754;2022-09-30T01:11:19;7.00;99.90
16511;DHT22;8368;48.772;8.754;2022-09-30T01:13:48;7.00;99.90
16511;DHT22;8368;48.772;8.754;2022-09-30T01:22:20;7.10;99.90
16511;DHT22;8368;48.772;8.754;2022-09-30T01:30:21;7.30;99.90
16511;DHT22;8368;48.772;8.754;2022-09-30T01:33:11;7.30;99.90
16511;DHT22;8368;48.772;8.754;2022-09-30T01:36:13;7.30;99.90
16511;DHT22;8368;48.772;8.754;2022-09-30T01:41:37;7.30;99.90
16511;DHT22;8368;48.772;8.754;2022-09-30T01:44:19;7.30;99.90
16511;DHT22;8368;48.772;8.754;2022-09-30T01:47:20;7.30;99.90
16511;DHT22;8368;48.772;8.754;2022-09-30T01:50:07;7.30;99.90
16511;DHT22;8368;48.772;8.754;2022-09-30T01:53:14;7.30;99.90
16511;DHT22;8368;48.772;8.754;2022-09-30T01:55:53;7.30;99.90
16511;DHT22;8368;48.772;8.754;2022-09-30T01:58:47;7.30;99.90
16511;DHT22;8368;48.772;8.754;2022-09-30T02:01:35;7.40;99.90
16511;DHT22;8368;48.772;8.754;2022-09-30T02:04:28;7.30;99.90
16511;DHT22;8368;48.772;8.754;2022-09-30T02:06:55;7.40;99.90
16511;DHT22;8368;48.772;8.754;2022-09-30T02:09:34;7.40;99.90
16511;DHT22;8368;48.772;8.754;2022-09-30T02:12:04;7.40;99.90
16511;DHT22;8368;48.772;8.754;2022-09-30T02:14:39;7.40;99.90
16511;DHT22;8368;48.772;8.754;2022-09-30T02:17:20;7.40;99.90
16511;DHT22;8368;48.772;8.754;2022-09-30T02:19:59;7.40;99.90
16511;DHT22;8368;48.772;8.754;2022-09-30T02:22:30;7.40;99.90
16511;DHT22;8368;48.772;8.754;2022-09-30T02:25:00;7.40;99.90
16511;DHT22;8368;48.772;8.754;2022-09-30T02:27:35;7.40;99.90
16511;DHT22;8368;48.772;8.754;2022-09-30T02:30:07;7.40;99.90
16511;DHT22;8368;48.772;8.754;2022-09-30T02:32:38;7.40;99.90
16511;DHT22;8368;48.772;8.754;2022-09-30T02:35:32;7.40;99.90
16511;DHT22;8368;48.772;8.754;2022-09-30T02:38:02;7.40;99.90
16511;DHT22;8368;48.772;8.754;2022-09-30T02:40:32;7.30;99.90
16511;DHT22;8368;48.772;8.754;2022-09-30T02:43:01;7.30;99.90
16511;DHT22;8368;48.772;8.754;2022-09-30T02:45:31;7.30;99.90
16511;DHT22;8368;48.772;8.754;2022-09-30T02:48:25;7.30;99.90
16511;DHT22;8368;48.772;8.754;2022-09-30T02:51:07;7.30;99.90
16511;DHT22;8368;48.772;8.754;2022-09-30T02:53:39;7.40;99.90
16511;DHT22;8368;48.772;8.754;2022-09-30T02:56:41;7.40;99.90
16511;DHT22;8368;48.772;8.754;2022-09-30T02:59:10;7.40;99.90
16511;DHT22;8368;48.772;8.754;2022-09-30T03:01:36;7.50;99.90
16511;DHT22;8368;48.772;8.754;2022-09-30T03:04:07;7.40;99.90
16511;DHT22;8368;48.772;8.754;2022-09-30T03:06:35;7.40;99.90
16511;DHT22;8368;48.772;8.754;2022-09-30T03:09:01;7.50;99.90
16511;DHT22;8368;48.772;8.754;2022-09-30T03:11:27;7.40;99.90
16511;DHT22;8368;48.772;8.754;2022-09-30T03:17:37;7.50;99.90
16511;DHT22;8368;48.772;8.754;2022-09-30T03:20:01;7.40;99.90
16511;DHT22;8368;48.772;8.754;2022-09-30T03:28:16;7.40;99.90
16511;DHT22;8368;48.772;8.754;2022-09-30T03:36:27;7.40;99.90
16511;DHT22;8368;48.772;8.754;2022-09-30T03:39:23;7.40;99.90
16511;DHT22;8368;48.772;8.754;2022-09-30T03:42:24;7.40;99.90
16511;DHT22;8368;48.772;8.754;2022-09-30T03:45:16;7.40;99.90
16511;DHT22;8368;48.772;8.754;2022-09-30T03:47:47;7.40;99.90
16511;DHT22;8368;48.772;8.754;2022-09-30T03:50:18;7.40;99.90
16511;DHT22;8368;48.772;8.754;2022-09-30T03:52:45;7.40;99.90
16511;DHT22;8368;48.772;8.754;2022-09-30T03:55:11;7.40;99.90
16511;DHT22;8368;48.772;8.754;2022-09-30T03:57:37;7.40;99.90
16511;DHT22;8368;48.772;8.754;2022-09-30T04:00:05;7.40;99.90
16511;DHT22;8368;48.772;8.754;2022-09-30T04:02:31;7.40;99.90
16511;DHT22;8368;48.772;8.754;2022-09-30T04:04:57;7.50;99.90
16511;DHT22;8368;48.772;8.754;2022-09-30T04:07:23;7.50;99.90
16511;DHT22;8368;48.772;8.754;2022-09-30T04:09:49;7.50;99.90
16511;DHT22;8368;48.772;8.754;2022-09-30T04:12:14;7.50;99.90
16511;DHT22;8368;48.772;8.754;2022-09-30T04:14:40;7.50;99.90
16511;DHT22;8368;48.772;8.754;2022-09-30T04:17:06;7.50;99.90
16511;DHT22;8368;48.772;8.754;2022-09-30T04:19:31;7.50;99.90
16511;DHT22;8368;48.772;8.754;2022-09-30T04:22:02;7.40;99.90
16511;DHT22;8368;48.772;8.754;2022-09-30T04:24:28;7.40;99.90
16511;DHT22;8368;48.772;8.754;2022-09-30T04:26:54;7.50;99.90
16511;DHT22;8368;48.772;8.754;2022-09-30T04:29:19;7.50;99.90
16511;DHT22;8368;48.772;8.754;2022-09-30T04:31:45;7.50;99.90
16511;DHT22;8368;48.772;8.754;2022-09-30T04:34:10;7.50;99.90
16511;DHT22;8368;48.772;8.754;2022-09-30T04:36:36;7.50;99.90
16511;DHT22;8368;48.772;8.754;2022-09-30T04:39:03;7.50;99.90
16511;DHT22;8368;48.772;8.754;2022-09-30T04:41:29;7.50;99.90
16511;DHT22;8368;48.772;8.754;2022-09-30T04:43:56;7.40;99.90
16511;DHT22;8368;48.772;8.754;2022-09-30T04:46:22;7.50;99.90
16511;DHT22;8368;48.772;8.754;2022-09-30T04:48:48;7.50;99.90
16511;DHT22;8368;48.772;8.754;2022-09-30T04:51:19;7.50;99.90
16511;DHT22;8368;48.772;8.754;2022-09-30T04:53:46;7.50;99.90
16511;DHT22;8368;48.772;8.754;2022-09-30T04:56:13;7.40;99.90
16511;DHT22;8368;48.772;8.754;2022-09-30T04:58:39;7.40;99.90
16511;DHT22;8368;48.772;8.754;2022-09-30T05:01:07;7.40;99.90
16511;DHT22;8368;48.772;8.754;2022-09-30T05:03:33;7.40;99.90
16511;DHT22;8368;48.772;8.754;2022-09-30T05:05:59;7.40;99.90
16511;DHT22;8368;48.772;8.754;2022-09-30T05:08:25;7.30;99.90
16511;DHT22;8368;48.772;8.754;2022-09-30T05:10:55;7.30;99.90
16511;DHT22;8368;48.772;8.754;2022-09-30T05:13:23;7.30;99.90
16511;DHT22;8368;48.772;8.754;2022-09-30T05:15:49;7.30;99.90
16511;DHT22;8368;48.772;8.754;2022-09-30T05:18:14;7.30;99.90
16511;DHT22;8368;48.772;8.754;2022-09-30T05:20:41;7.30;99.90
16511;DHT22;8368;48.772;8.754;2022-09-30T05:23:06;7.30;99.90
16511;DHT22;8368;48.772;8.754;2022-09-30T05:25:34;7.30;99.90
16511;DHT22;8368;48.772;8.754;2022-09-30T05:28:00;7.30;99.90
16511;DHT22;8368;48.772;8.754;2022-09-30T05:30:30;7.30;99.90
16511;DHT22;8368;48.772;8.754;2022-09-30T05:32:55;7.40;99.90
16511;DHT22;8368;48.772;8.754;2022-09-30T05:35:21;7.40;99.90
16511;DHT22;8368;48.772;8.754;2022-09-30T05:37:47;7.50;99.90
16511;DHT22;8368;48.772;8.754;2022-09-30T05:40:12;7.40;99.90
16511;DHT22;8368;48.772;8.754;2022-09-30T05:42:38;7.50;99.90
16511;DHT22;8368;48.772;8.754;2022-09-30T05:45:04;7.50;99.90
16511;DHT22;8368;48.772;8.754;2022-09-30T05:47:31;7.50;99.90
16511;DHT22;8368;48.772;8.754;2022-09-30T05:49:57;7.60;99.90
16511;DHT22;8368;48.772;8.754;2022-09-30T05:52:23;7.60;99.90
16511;DHT22;8368;48.772;8.754;2022-09-30T05:54:49;7.70;99.90
16511;DHT22;8368;48.772;8.754;2022-09-30T05:57:15;7.70;99.90
16511;DHT22;8368;48.772;8.754;2022-09-30T05:59:42;7.70;99.90
16511;DHT22;8368;48.772;8.754;2022-09-30T06:02:08;7.70;99.90
16511;DHT22;8368;48.772;8.754;2022-09-30T06:04:34;7.60;99.90
16511;DHT22;8368;48.772;8.754;2022-09-30T06:07:00;7.80;99.90
16511;DHT22;8368;48.772;8.754;2022-09-30T06:09:25;7.80;99.90
16511;DHT22;8368;48.772;8.754;2022-09-30T06:11:51;7.90;99.90
16511;DHT22;8368;48.772;8.754;2022-09-30T06:14:17;7.90;99.90
16511;DHT22;8368;48.772;8.754;2022-09-30T06:16:44;8.00;99.90
16511;DHT22;8368;48.772;8.754;2022-09-30T06:19:10;8.00;99.90
16511;DHT22;8368;48.772;8.754;2022-09-30T06:21:36;8.10;99.90
16511;DHT22;8368;48.772;8.754;2022-09-30T06:24:01;8.10;99.90
16511;DHT22;8368;48.772;8.754;2022-09-30T06:26:27;8.10;99.90
16511;DHT22;8368;48.772;8.754;2022-09-30T06:28:52;8.10;99.90
16511;DHT22;8368;48.772;8.754;2022-09-30T06:31:18;8.20;99.90
16511;DHT22;8368;48.772;8.754;2022-09-30T06:33:43;8.20;99.90
16511;DHT22;8368;48.772;8.754;2022-09-30T06:36:09;8.20;99.90
16511;DHT22;8368;48.772;8.754;2022-09-30T06:38:36;8.20;99.90
16511;DHT22;8368;48.772;8.754;2022-09-30T06:41:03;8.30;99.90
16511;DHT22;8368;48.772;8.754;2022-09-30T06:43:29;8.30;99.90
16511;DHT22;8368;48.772;8.754;2022-09-30T06:45:55;8.40;99.90
16511;DHT22;8368;48.772;8.754;2022-09-30T06:48:20;8.40;99.90
16511;DHT22;8368;48.772;8.754;2022-09-30T06:50:48;8.40;99.90
16511;DHT22;8368;48.772;8.754;2022-09-30T06:53:13;8.40;99.90
16511;DHT22;8368;48.772;8.754;2022-09-30T06:55:39;8.50;99.90
16511;DHT22;8368;48.772;8.754;2022-09-30T06:58:08;8.50;99.90
16511;DHT22;8368;48.772;8.754;2022-09-30T07:00:37;8.50;99.90
16511;DHT22;8368;48.772;8.754;2022-09-30T07:03:04;8.60;99.90
16511;DHT22;8368;48.772;8.754;2022-09-30T07:05:37;8.70;99.90
16511;DHT22;8368;48.772;8.754;2022-09-30T07:08:02;8.70;99.90
16511;DHT22;8368;48.772;8.754;2022-09-30T07:10:28;8.70;99.90
16511;DHT22;8368;48.772;8.754;2022-09-30T07:12:54;8.80;99.90
16511;DHT22;8368;48.772;8.754;2022-09-30T07:15:20;8.80;99.90
16511;DHT22;8368;48.772;8.754;2022-09-30T07:17:54;8.80;99.90
16511;DHT22;8368;48.772;8.754;2022-09-30T07:20:21;8.90;99.90
16511;DHT22;8368;48.772;8.754;2022-09-30T07:22:46;9.00;99.90
16511;DHT22;8368;48.772;8.754;2022-09-30T07:25:13;9.00;99.90
16511;DHT22;8368;48.772;8.754;2022-09-30T07:27:39;9.10;99.90
16511;DHT22;8368;48.772;8.754;2022-09-30T07:30:05;9.20;99.90
16511;DHT22;8368;48.772;8.754;2022-09-30T07:32:31;9.20;99.90
16511;DHT22;8368;48.772;8.754;2022-09-30T07:34:57;9.20;99.90
16511;DHT22;8368;48.772;8.754;2022-09-30T07:37:23;9.20;99.90
16511;DHT22;8368;48.772;8.754;2022-09-30T07:39:49;9.20;99.90
16511;DHT22;8368;48.772;8.754;2022-09-30T07:42:16;9.30;99.90
16511;DHT22;8368;48.772;8.754;2022-09-30T07:44:45;9.30;99.90
16511;DHT22;8368;48.772;8.754;2022-09-30T07:47:12;9.30;99.90
16511;DHT22;8368;48.772;8.754;2022-09-30T07:49:39;9.40;99.90
16511;DHT22;8368;48.772;8.754;2022-09-30T07:52:05;9.50;99.90
16511;DHT22;8368;48.772;8.754;2022-09-30T07:54:33;9.50;99.90
16511;DHT22;8368;48.772;8.754;2022-09-30T07:57:00;9.50;99.90
16511;DHT22;8368;48.772;8.754;2022-09-30T07:59:28;9.50;99.90
16511;DHT22;8368;48.772;8.754;2022-09-30T08:01:54;9.50;99.90
16511;DHT22;8368;48.772;8.754;2022-09-30T08:04:22;9.60;99.90
16511;DHT22;8368;48.772;8.754;2022-09-30T08:06:54;9.60;99.90
16511;DHT22;8368;48.772;8.754;2022-09-30T08:09:22;9.70;99.90
16511;DHT22;8368;48.772;8.754;2022-09-30T08:11:48;9.70;99.90
16511;DHT22;8368;48.772;8.754;2022-09-30T08:14:17;9.80;99.90
16511;DHT22;8368;48.772;8.754;2022-09-30T08:16:43;9.90;99.90
16511;DHT22;8368;48.772;8.754;2022-09-30T08:19:13;9.90;99.90
16511;DHT22;8368;48.772;8.754;2022-09-30T08:21:40;10.00;99.90
16511;DHT22;8368;48.772;8.754;2022-09-30T08:24:06;10.10;99.90
16511;DHT22;8368;48.772;8.754;2022-09-30T08:26:35;10.10;99.90
16511;DHT22;8368;48.772;8.754;2022-09-30T08:29:01;10.10;99.90
16511;DHT22;8368;48.772;8.754;2022-09-30T08:31:27;10.20;99.90
16511;DHT22;8368;48.772;8.754;2022-09-30T08:33:54;10.30;99.90
16511;DHT22;8368;48.772;8.754;2022-09-30T08:36:22;10.40;99.90
16511;DHT22;8368;48.772;8.754;2022-09-30T08:38:48;10.50;99.90
16511;DHT22;8368;48.772;8.754;2022-09-30T08:41:28;10.70;99.90
16511;DHT22;8368;48.772;8.754;2022-09-30T08:52:27;11.10;99.90
16511;DHT22;8368;48.772;8.754;2022-09-30T08:54:57;11.20;99.90
16511;DHT22;8368;48.772;8.754;2022-09-30T08:57:23;11.30;99.90
16511;DHT22;8368;48.772;8.754;2022-09-30T08:59:54;11.40;99.90
16511;DHT22;8368;48.772;8.754;2022-09-30T09:02:29;11.50;99.90
16511;DHT22;8368;48.772;8.754;2022-09-30T09:04:58;11.60;99.90
16511;DHT22;8368;48.772;8.754;2022-09-30T09:07:52;11.60;99.90
16511;DHT22;8368;48.772;8.754;2022-09-30T09:10:27;11.80;99.90
16511;DHT22;8368;48.772;8.754;2022-09-30T09:15:49;11.90;99.90
16511;DHT22;8368;48.772;8.754;2022-09-30T09:18:21;11.80;99.90
16511;DHT22;8368;48.772;8.754;2022-09-30T09:20:54;11.90;99.90
16511;DHT22;8368;48.772;8.754;2022-09-30T09:23:21;11.90;99.90
16511;DHT22;8368;48.772;8.754;2022-09-30T09:25:48;12.00;99.90
16511;DHT22;8368;48.772;8.754;2022-09-30T09:28:41;12.10;99.90
16511;DHT22;8368;48.772;8.754;2022-09-30T09:31:14;12.20;99.90
16511;DHT22;8368;48.772;8.754;2022-09-30T09:33:41;12.20;99.90
16511;DHT22;8368;48.772;8.754;2022-09-30T09:36:13;12.20;99.90
16511;DHT22;8368;48.772;8.754;2022-09-30T09:39:01;12.20;99.90
16511;DHT22;8368;48.772;8.754;2022-09-30T09:44:37;12.60;99.90
16511;DHT22;8368;48.772;8.754;2022-09-30T09:47:11;12.70;99.90
16511;DHT22;8368;48.772;8.754;2022-09-30T09:55:05;12.40;99.90
16511;DHT22;8368;48.772;8.754;2022-09-30T09:57:31;12.40;99.90
16511;DHT22;8368;48.772;8.754;2022-09-30T10:03:24;12.40;99.90
16511;DHT22;8368;48.772;8.754;2022-09-30T10:06:04;12.30;99.90
16511;DHT22;8368;48.772;8.754;2022-09-30T10:08:33;12.40;99.90
16511;DHT22;8368;48.772;8.754;2022-09-30T10:11:26;12.50;99.90
16511;DHT22;8368;48.772;8.754;2022-09-30T10:13:59;12.70;99.90
16511;DHT22;8368;48.772;8.754;2022-09-30T10:16:34;12.90;99.90
16511;DHT22;8368;48.772;8.754;2022-09-30T10:19:02;13.00;99.90
16511;DHT22;8368;48.772;8.754;2022-09-30T10:21:29;13.20;99.90
16511;DHT22;8368;48.772;8.754;2022-09-30T10:23:55;13.40;99.90
16511;DHT22;8368;48.772;8.754;2022-09-30T10:26:24;13.40;99.90
16511;DHT22;8368;48.772;8.754;2022-09-30T10:31:35;13.70;99.90
16511;DHT22;8368;48.772;8.754;2022-09-30T10:36:41;13.50;99.90
16511;DHT22;8368;48.772;8.754;2022-09-30T10:41:45;13.10;99.90
16511;DHT22;8368;48.772;8.754;2022-09-30T10:44:17;12.80;99.90
16511;DHT22;8368;48.772;8.754;2022-09-30T10:46:45;12.70;99.90
16511;DHT22;8368;48.772;8.754;2022-09-30T10:49:31;12.60;99.90
16511;DHT22;8368;48.772;8.754;2022-09-30T10:52:00;12.60;99.90
16511;DHT22;8368;48.772;8.754;2022-09-30T10:57:00;12.80;99.90
16511;DHT22;8368;48.772;8.754;2022-09-30T10:59:34;12.90;99.90
16511;DHT22;8368;48.772;8.754;2022-09-30T11:02:26;13.00;99.90
16511;DHT22;8368;48.772;8.754;2022-09-30T11:05:19;13.00;99.90
16511;DHT22;8368;48.772;8.754;2022-09-30T11:10:32;13.10;99.90
16511;DHT22;8368;48.772;8.754;2022-09-30T11:13:26;13.20;99.90
16511;DHT22;8368;48.772;8.754;2022-09-30T11:19:08;13.60;99.90
16511;DHT22;8368;48.772;8.754;2022-09-30T11:22:24;13.60;99.90
16511;DHT22;8368;48.772;8.754;2022-09-30T11:24:42;13.70;99.90
16511;DHT22;8368;48.772;8.754;2022-09-30T11:27:40;13.70;99.90
16511;DHT22;8368;48.772;8.754;2022-09-30T11:30:43;13.80;99.90
16511;DHT22;8368;48.772;8.754;2022-09-30T11:42:13;13.90;99.90
16511;DHT22;8368;48.772;8.754;2022-09-30T11:44:42;14.10;99.90
16511;DHT22;8368;48.772;8.754;2022-09-30T11:50:25;14.30;99.90
16511;DHT22;8368;48.772;8.754;2022-09-30T11:58:40;14.50;99.90
16511;DHT22;8368;48.772;8.754;2022-09-30T12:01:19;14.50;99.90
16511;DHT22;8368;48.772;8.754;2022-09-30T12:03:56;14.50;99.90
16511;DHT22;8368;48.772;8.754;2022-09-30T12:06:29;14.50;99.90
16511;DHT22;8368;48.772;8.754;2022-09-30T12:09:45;14.60;99.90
16511;DHT22;8368;48.772;8.754;2022-09-30T12:12:00;14.60;99.90
16511;DHT22;8368;48.772;8.754;2022-09-30T12:14:28;14.50;99.90
16511;DHT22;8368;48.772;8.754;2022-09-30T12:16:56;14.50;99.90
16511;DHT22;8368;48.772;8.754;2022-09-30T12:19:40;14.50;99.90
16511;DHT22;8368;48.772;8.754;2022-09-30T12:22:21;14.50;99.90
16511;DHT22;8368;48.772;8.754;2022-09-30T12:24:48;14.60;99.90
16511;DHT22;8368;48.772;8.754;2022-09-30T12:27:38;14.70;99.90
16511;DHT22;8368;48.772;8.754;2022-09-30T12:30:15;14.50;99.90
16511;DHT22;8368;48.772;8.754;2022-09-30T12:33:15;14.60;99.90
16511;DHT22;8368;48.772;8.754;2022-09-30T12:39:01;14.70;99.90
16511;DHT22;8368;48.772;8.754;2022-09-30T12:44:59;14.70;99.90
16511;DHT22;8368;48.772;8.754;2022-09-30T12:50:13;14.60;99.90
16511;DHT22;8368;48.772;8.754;2022-09-30T12:52:39;14.50;99.90
16511;DHT22;8368;48.772;8.754;2022-09-30T12:57:54;14.70;99.90
16511;DHT22;8368;48.772;8.754;2022-09-30T13:00:22;14.80;99.90
16511;DHT22;8368;48.772;8.754;2022-09-30T13:02:55;14.90;99.90
16511;DHT22;8368;48.772;8.754;2022-09-30T13:10:46;15.10;99.90
16511;DHT22;8368;48.772;8.754;2022-09-30T13:15:43;14.90;99.90
16511;DHT22;8368;48.772;8.754;2022-09-30T13:28:54;14.80;99.90
16511;DHT22;8368;48.772;8.754;2022-09-30T13:34:13;14.50;99.90
16511;DHT22;8368;48.772;8.754;2022-09-30T13:41:43;14.50;99.90
16511;DHT22;8368;48.772;8.754;2022-09-30T13:47:27;14.80;99.90
16511;DHT22;8368;48.772;8.754;2022-09-30T13:52:34;14.90;99.90
16511;DHT22;8368;48.772;8.754;2022-09-30T13:55:16;15.00;99.90
16511;DHT22;8368;48.772;8.754;2022-09-30T14:00:13;15.10;99.90
16511;DHT22;8368;48.772;8.754;2022-09-30T14:13:35;14.50;99.90
16511;DHT22;8368;48.772;8.754;2022-09-30T14:21:56;14.30;99.90
16511;DHT22;8368;48.772;8.754;2022-09-30T14:24:24;14.30;99.90
16511;DHT22;8368;48.772;8.754;2022-09-30T14:32:15;14.40;99.90
16511;DHT22;8368;48.772;8.754;2022-09-30T14:34:44;14.50;99.90
16511;DHT22;8368;48.772;8.754;2022-09-30T14:37:14;14.50;99.90
16511;DHT22;8368;48.772;8.754;2022-09-30T14:39:42;14.60;99.90
16511;DHT22;8368;48.772;8.754;2022-09-30T14:42:13;14.70;99.90
16511;DHT22;8368;48.772;8.754;2022-09-30T14:44:41;14.70;99.90
16511;DHT22;8368;48.772;8.754;2022-09-30T14:47:07;14.90;99.90
16511;DHT22;8368;48.772;8.754;2022-09-30T14:49:34;14.90;99.90
16511;DHT22;8368;48.772;8.754;2022-09-30T14:52:02;14.80;99.90
16511;DHT22;8368;48.772;8.754;2022-09-30T14:54:30;14.80;99.90
16511;DHT22;8368;48.772;8.754;2022-09-30T14:56:58;14.80;99.90
16511;DHT22;8368;48.772;8.754;2022-09-30T14:59:29;14.60;99.90
16511;DHT22;8368;48.772;8.754;2022-09-30T15:02:15;14.50;99.90
16511;DHT22;8368;48.772;8.754;2022-09-30T15:04:47;14.40;99.90
16511;DHT22;8368;48.772;8.754;2022-09-30T15:07:13;14.30;99.90
16511;DHT22;8368;48.772;8.754;2022-09-30T15:09:44;14.30;99.90
16511;DHT22;8368;48.772;8.754;2022-09-30T15:12:13;14.30;99.90
16511;DHT22;8368;48.772;8.754;2022-09-30T15:17:21;14.30;99.90
16511;DHT22;8368;48.772;8.754;2022-09-30T15:19:48;14.20;99.90
16511;DHT22;8368;48.772;8.754;2022-09-30T15:22:15;14.10;99.90
16511;DHT22;8368;48.772;8.754;2022-09-30T15:24:42;13.90;99.90
16511;DHT22;8368;48.772;8.754;2022-09-30T15:27:35;13.80;99.90
16511;DHT22;8368;48.772;8.754;2022-09-30T15:30:19;13.70;99.90
16511;DHT22;8368;48.772;8.754;2022-09-30T15:32:47;13.70;99.90
16511;DHT22;8368;48.772;8.754;2022-09-30T15:35:19;13.70;99.90
16511;DHT22;8368;48.772;8.754;2022-09-30T15:37:49;13.70;99.90
16511;DHT22;8368;48.772;8.754;2022-09-30T15:40:18;13.70;99.90
16511;DHT22;8368;48.772;8.754;2022-09-30T15:43:11;13.50;99.90
16511;DHT22;8368;48.772;8.754;2022-09-30T15:45:41;13.30;99.90
16511;DHT22;8368;48.772;8.754;2022-09-30T15:50:50;13.00;99.90
16511;DHT22;8368;48.772;8.754;2022-09-30T15:53:27;13.00;99.90
16511;DHT22;8368;48.772;8.754;2022-09-30T15:58:56;12.70;99.90
16511;DHT22;8368;48.772;8.754;2022-09-30T16:01:49;12.60;99.90
16511;DHT22;8368;48.772;8.754;2022-09-30T16:06:55;12.30;99.90
16511;DHT22;8368;48.772;8.754;2022-09-30T16:09:33;12.20;99.90
16511;DHT22;8368;48.772;8.754;2022-09-30T16:12:08;12.10;99.90
16511;DHT22;8368;48.772;8.754;2022-09-30T16:19:57;11.90;99.90
16511;DHT22;8368;48.772;8.754;2022-09-30T16:30:24;11.70;99.90
16511;DHT22;8368;48.772;8.754;2022-09-30T16:32:52;11.60;99.90
16511;DHT22;8368;48.772;8.754;2022-09-30T16:35:21;11.40;99.90
16511;DHT22;8368;48.772;8.754;2022-09-30T16:37:48;11.30;99.90
16511;DHT22;8368;48.772;8.754;2022-09-30T16:40:17;11.10;99.90
16511;DHT22;8368;48.772;8.754;2022-09-30T16:42:44;11.00;99.90
16511;DHT22;8368;48.772;8.754;2022-09-30T16:45:11;10.90;99.90
16511;DHT22;8368;48.772;8.754;2022-09-30T16:47:37;10.80;99.90
16511;DHT22;8368;48.772;8.754;2022-09-30T16:50:27;10.70;99.90
16511;DHT22;8368;48.772;8.754;2022-09-30T16:52:53;10.60;99.90
16511;DHT22;8368;48.772;8.754;2022-09-30T16:55:19;10.50;99.90
16511;DHT22;8368;48.772;8.754;2022-09-30T16:57:45;10.50;99.90
16511;DHT22;8368;48.772;8.754;2022-09-30T17:00:14;10.30;99.90
16511;DHT22;8368;48.772;8.754;2022-09-30T17:02:47;10.20;99.90
16511;DHT22;8368;48.772;8.754;2022-09-30T17:05:17;10.00;99.90
16511;DHT22;8368;48.772;8.754;2022-09-30T17:07:45;9.90;99.90
16511;DHT22;8368;48.772;8.754;2022-09-30T17:10:23;9.80;99.90
16511;DHT22;8368;48.772;8.754;2022-09-30T17:12:50;9.70;99.90
16511;DHT22;8368;48.772;8.754;2022-09-30T17:15:17;9.60;99.90
16511;DHT22;8368;48.772;8.754;2022-09-30T17:17:43;9.60;99.90
16511;DHT22;8368;48.772;8.754;2022-09-30T17:20:08;9.50;99.90
16511;DHT22;8368;48.772;8.754;2022-09-30T17:22:34;9.40;99.90
16511;DHT22;8368;48.772;8.754;2022-09-30T17:25:00;9.40;99.90
16511;DHT22;8368;48.772;8.754;2022-09-30T17:27:25;9.30;99.90
16511;DHT22;8368;48.772;8.754;2022-09-30T17:29:51;9.20;99.90
16511;DHT22;8368;48.772;8.754;2022-09-30T17:32:16;9.10;99.90
16511;DHT22;8368;48.772;8.754;2022-09-30T17:34:42;9.00;99.90
16511;DHT22;8368;48.772;8.754;2022-09-30T17:37:09;8.90;99.90
16511;DHT22;8368;48.772;8.754;2022-09-30T17:39:35;8.90;99.90
16511;DHT22;8368;48.772;8.754;2022-09-30T17:42:01;8.90;99.90
16511;DHT22;8368;48.772;8.754;2022-09-30T17:44:45;8.80;99.90
16511;DHT22;8368;48.772;8.754;2022-09-30T17:47:12;8.70;99.90
16511;DHT22;8368;48.772;8.754;2022-09-30T17:49:37;8.60;99.90
16511;DHT22;8368;48.772;8.754;2022-09-30T17:52:03;8.60;99.90
16511;DHT22;8368;48.772;8.754;2022-09-30T17:54:29;8.50;99.90
16511;DHT22;8368;48.772;8.754;2022-09-30T17:56:55;8.40;99.90
16511;DHT22;8368;48.772;8.754;2022-09-30T17:59:22;8.40;99.90
16511;DHT22;8368;48.772;8.754;2022-09-30T18:01:50;8.40;99.90
16511;DHT22;8368;48.772;8.754;2022-09-30T18:04:16;8.30;99.90
16511;DHT22;8368;48.772;8.754;2022-09-30T18:06:46;8.20;99.90
16511;DHT22;8368;48.772;8.754;2022-09-30T18:09:12;8.20;99.90
16511;DHT22;8368;48.772;8.754;2022-09-30T18:11:38;8.10;99.90
16511;DHT22;8368;48.772;8.754;2022-09-30T18:14:03;8.10;99.90
16511;DHT22;8368;48.772;8.754;2022-09-30T18:16:31;8.00;99.90
16511;DHT22;8368;48.772;8.754;2022-09-30T18:19:00;8.00;99.90
16511;DHT22;8368;48.772;8.754;2022-09-30T18:21:26;7.90;99.90
16511;DHT22;8368;48.772;8.754;2022-09-30T18:23:54;7.90;99.90
16511;DHT22;8368;48.772;8.754;2022-09-30T18:26:24;7.80;99.90
16511;DHT22;8368;48.772;8.754;2022-09-30T18:28:50;7.70;99.90
16511;DHT22;8368;48.772;8.754;2022-09-30T18:31:18;7.70;99.90
16511;DHT22;8368;48.772;8.754;2022-09-30T18:33:54;7.60;99.90
16511;DHT22;8368;48.772;8.754;2022-09-30T18:36:20;7.60;99.90
16511;DHT22;8368;48.772;8.754;2022-09-30T18:38:46;7.60;99.90
16511;DHT22;8368;48.772;8.754;2022-09-30T18:41:11;7.50;99.90
16511;DHT22;8368;48.772;8.754;2022-09-30T18:43:37;7.40;99.90
16511;DHT22;8368;48.772;8.754;2022-09-30T18:46:04;7.40;99.90
16511;DHT22;8368;48.772;8.754;2022-09-30T18:48:30;7.40;99.90
16511;DHT22;8368;48.772;8.754;2022-09-30T18:51:04;7.30;99.90
16511;DHT22;8368;48.772;8.754;2022-09-30T18:53:31;7.30;99.90
16511;DHT22;8368;48.772;8.754;2022-09-30T18:56:01;7.20;99.90
16511;DHT22;8368;48.772;8.754;2022-09-30T18:58:27;7.20;99.90
16511;DHT22;8368;48.772;8.754;2022-09-30T19:00:54;7.10;99.90
16511;DHT22;8368;48.772;8.754;2022-09-30T19:03:20;7.10;99.90
16511;DHT22;8368;48.772;8.754;2022-09-30T19:05:46;7.00;99.90
16511;DHT22;8368;48.772;8.754;2022-09-30T19:08:12;7.00;99.90
16511;DHT22;8368;48.772;8.754;2022-09-30T19:10:38;7.00;99.90
16511;DHT22;8368;48.772;8.754;2022-09-30T19:13:04;6.90;99.90
16511;DHT22;8368;48.772;8.754;2022-09-30T19:15:30;6.90;99.90
16511;DHT22;8368;48.772;8.754;2022-09-30T19:17:55;6.80;99.90